Time,TemperatureF,DewpointF,PressureIn,WindDirection,WindDirectionDegrees,WindSpeedMPH,WindSpeedGustMPH,Humidity,HourlyPrecipIn,Conditions,Clouds,dailyrainin,SoftwareType,DateUTC
2013-05-16 18:09:00,49.8,2.5,17.72,ENE,73,0.0,0.0,14,0.00,,---,0.00,VWS V13.01,2013-05-16 22:09:00,
2013-05-16 18:14:00,70.2,8.7,17.72,North,0,0.0,3.6,9,0.00,,---,0.00,VWS V13.01,2013-05-16 22:14:00,
2013-05-16 18:19:00,69.8,8.5,17.72,NE,50,2.7,4.0,9,0.00,,---,0.00,VWS V13.01,2013-05-16 22:19:00,
2013-05-16 18:24:00,69.1,10.3,17.72,North,8,2.7,2.7,10,0.00,,---,0.00,VWS V13.01,2013-05-16 22:24:00,
2013-05-16 18:29:00,68.9,10.1,17.72,North,350,0.0,4.0,10,0.00,,---,0.00,VWS V13.01,2013-05-16 22:29:00,
2013-05-16 18:34:00,68.4,9.7,17.72,East,87,3.1,7.2,10,0.00,,---,0.00,VWS V13.01,2013-05-16 22:34:00,
2013-05-16 18:39:00,67.3,8.9,17.72,North,357,0.0,0.0,10,0.00,,---,0.00,VWS V13.01,2013-05-16 22:39:00,
2013-05-16 18:44:00,66.7,8.5,17.72,West,267,4.0,4.0,10,0.00,,---,0.00,VWS V13.01,2013-05-16 22:44:00,
2013-05-16 18:49:00,66.2,8.1,17.72,North,0,4.9,4.9,10,0.00,,---,0.00,VWS V13.01,2013-05-16 22:49:00,
2013-05-16 18:54:00,66.0,7.9,17.72,WSW,243,0.0,2.7,10,0.00,,---,0.00,VWS V13.01,2013-05-16 22:54:00,
2013-05-16 18:59:00,65.8,7.8,17.72,West,274,0.0,2.7,10,0.00,,---,0.00,VWS V13.01,2013-05-16 22:59:00,
2013-05-16 19:04:00,65.5,7.5,17.72,NNW,327,0.0,7.6,10,0.00,,---,0.00,VWS V13.01,2013-05-16 23:04:00,
2013-05-16 19:09:00,65.1,7.2,17.72,North,0,5.8,5.8,10,0.00,,---,0.00,VWS V13.01,2013-05-16 23:09:00,
2013-05-16 19:14:00,64.6,6.8,17.72,North,350,0.0,3.6,10,0.00,,---,0.00,VWS V13.01,2013-05-16 23:14:00,
2013-05-16 19:19:00,64.2,8.6,17.72,North,3,0.0,0.0,11,0.00,,---,0.00,VWS V13.01,2013-05-16 23:19:00,
2013-05-16 19:24:00,63.7,8.2,17.72,West,270,0.0,0.0,11,0.00,,---,0.00,VWS V13.01,2013-05-16 23:24:00,
2013-05-16 19:29:00,63.3,7.9,17.72,WSW,241,2.2,2.7,11,0.00,,---,0.00,VWS V13.01,2013-05-16 23:29:00,
2013-05-16 19:34:00,63.0,7.7,17.72,West,263,5.8,5.8,11,0.00,,---,0.00,VWS V13.01,2013-05-16 23:34:00,
2013-05-16 19:39:00,62.6,7.4,17.72,NE,43,2.2,3.1,11,0.00,,---,0.00,VWS V13.01,2013-05-16 23:39:00,
2013-05-16 19:44:00,62.2,7.1,17.72,SW,221,2.7,3.1,11,0.00,,---,0.00,VWS V13.01,2013-05-16 23:44:00,
2013-05-16 19:49:00,61.9,6.8,17.72,SE,137,2.2,2.2,11,0.00,,---,0.00,VWS V13.01,2013-05-16 23:49:00,
2013-05-16 19:54:00,61.7,6.7,17.72,NW,318,0.0,0.0,11,0.00,,---,0.00,VWS V13.01,2013-05-16 23:54:00,
2013-05-16 19:59:00,61.5,6.5,17.72,NNE,28,0.0,6.3,11,0.00,,---,0.00,VWS V13.01,2013-05-16 23:59:00,
2013-05-16 20:04:00,61.2,6.3,17.72,North,357,0.0,2.2,11,0.00,,---,0.00,VWS V13.01,2013-05-17 00:04:00,
2013-05-16 20:09:00,61.0,6.1,17.72,NNW,345,0.0,0.0,11,0.00,,---,0.00,VWS V13.01,2013-05-17 00:09:00,
2013-05-16 20:14:00,60.6,7.8,17.72,WSW,239,0.0,0.0,12,0.00,,---,0.00,VWS V13.01,2013-05-17 00:14:00,
2013-05-16 20:19:00,60.3,7.5,17.72,WSW,251,0.0,3.1,12,0.00,,---,0.00,VWS V13.01,2013-05-17 00:19:00,
2013-05-16 20:24:00,60.1,7.3,17.72,WSW,252,0.0,0.0,12,0.00,,---,0.00,VWS V13.01,2013-05-17 00:24:00,
2013-05-16 20:29:00,59.7,7.0,17.72,South,185,0.0,0.0,12,0.00,,---,0.00,VWS V13.01,2013-05-17 00:29:00,
2013-05-16 20:34:00,59.5,6.9,17.72,WNW,287,0.0,0.0,12,0.00,,---,0.00,VWS V13.01,2013-05-17 00:34:00,
2013-05-16 20:39:00,59.2,6.6,17.72,NNE,23,0.0,2.7,12,0.00,,---,0.00,VWS V13.01,2013-05-17 00:39:00,
2013-05-16 20:44:00,59.0,6.5,17.72,NNE,33,2.2,2.2,12,0.00,,---,0.00,VWS V13.01,2013-05-17 00:44:00,
2013-05-16 20:49:00,58.8,6.3,17.72,WSW,249,5.8,5.8,12,0.00,,---,0.00,VWS V13.01,2013-05-17 00:49:00,
2013-05-16 20:54:00,58.6,6.2,17.72,South,169,0.0,0.0,12,0.00,,---,0.00,VWS V13.01,2013-05-17 00:54:00,
2013-05-16 20:59:00,58.5,6.1,17.72,WSW,245,0.0,0.0,12,0.00,,---,0.00,VWS V13.01,2013-05-17 00:59:00,
2013-05-16 21:04:00,58.5,6.1,17.72,WSW,251,0.0,0.0,12,0.00,,---,0.00,VWS V13.01,2013-05-17 01:04:00,
2013-05-16 21:09:00,58.5,6.1,17.72,NW,310,3.6,3.6,12,0.00,,---,0.00,VWS V13.01,2013-05-17 01:09:00,
2013-05-16 21:14:00,58.1,5.8,17.72,North,353,0.0,0.0,12,0.00,,---,0.00,VWS V13.01,2013-05-17 01:14:00,
2013-05-16 21:19:00,57.9,5.6,17.72,SW,228,0.0,0.0,12,0.00,,---,0.00,VWS V13.01,2013-05-17 01:19:00,
2013-05-16 21:24:00,57.7,5.5,17.72,West,270,3.1,3.1,12,0.00,,---,0.00,VWS V13.01,2013-05-17 01:24:00,
2013-05-16 21:29:00,57.4,5.2,17.72,North,7,0.0,0.0,12,0.00,,---,0.00,VWS V13.01,2013-05-17 01:29:00,
2013-05-16 21:34:00,57.2,5.1,17.72,North,353,0.0,0.0,12,0.00,,---,0.00,VWS V13.01,2013-05-17 01:34:00,
2013-05-16 21:39:00,57.0,4.9,17.72,North,353,3.6,3.6,12,0.00,,---,0.00,VWS V13.01,2013-05-17 01:39:00,
2013-05-16 21:44:00,56.8,4.8,17.72,West,267,0.0,0.0,12,0.00,,---,0.00,VWS V13.01,2013-05-17 01:44:00,
2013-05-16 21:49:00,56.7,4.6,17.72,NE,51,0.0,0.0,12,0.00,,---,0.00,VWS V13.01,2013-05-17 01:49:00,
2013-05-16 21:54:00,56.7,4.6,17.72,NE,54,0.0,0.0,12,0.00,,---,0.00,VWS V13.01,2013-05-17 01:54:00,
2013-05-16 21:59:00,56.5,4.5,17.72,NNE,22,0.0,0.0,12,0.00,,---,0.00,VWS V13.01,2013-05-17 01:59:00,
2013-05-16 22:04:00,56.3,4.4,17.72,NNE,22,0.0,0.0,12,0.00,,---,0.00,VWS V13.01,2013-05-17 02:04:00,
2013-05-16 22:09:00,56.1,4.2,17.72,West,265,2.2,2.2,12,0.00,,---,0.00,VWS V13.01,2013-05-17 02:09:00,
2013-05-16 22:14:00,55.9,4.1,17.72,West,267,0.0,0.0,12,0.00,,---,0.00,VWS V13.01,2013-05-17 02:14:00,
2013-05-16 22:19:00,55.9,4.1,17.72,WSW,251,0.0,0.0,12,0.00,,---,0.00,VWS V13.01,2013-05-17 02:19:00,
2013-05-16 22:24:00,55.8,3.9,17.72,North,353,0.0,0.0,12,0.00,,---,0.00,VWS V13.01,2013-05-17 02:24:00,
2013-05-16 22:29:00,55.6,3.8,17.72,NNE,32,0.0,0.0,12,0.00,,---,0.00,VWS V13.01,2013-05-17 02:29:00,
2013-05-16 22:34:00,55.4,3.7,17.72,North,4,0.0,0.0,12,0.00,,---,0.00,VWS V13.01,2013-05-17 02:34:00,
2013-05-16 22:39:00,55.4,3.7,17.72,West,265,0.0,0.0,12,0.00,,---,0.00,VWS V13.01,2013-05-17 02:39:00,
2013-05-16 22:44:00,55.4,3.7,17.72,WSW,249,0.0,0.0,12,0.00,,---,0.00,VWS V13.01,2013-05-17 02:44:00,
2013-05-16 22:49:00,55.2,5.2,17.72,WNW,282,0.0,0.0,13,0.00,,---,0.00,VWS V13.01,2013-05-17 02:49:00,
2013-05-16 22:54:00,55.2,5.2,17.72,West,279,0.0,0.0,13,0.00,,---,0.00,VWS V13.01,2013-05-17 02:54:00,
2013-05-16 22:59:00,55.0,5.1,17.72,North,353,0.0,0.0,13,0.00,,---,0.00,VWS V13.01,2013-05-17 02:59:00,
2013-05-16 23:04:00,54.9,5.0,17.72,North,353,0.0,0.0,13,0.00,,---,0.00,VWS V13.01,2013-05-17 03:04:00,
2013-05-16 23:09:00,54.7,4.8,17.72,WSW,253,2.2,2.2,13,0.00,,---,0.00,VWS V13.01,2013-05-17 03:09:00,
2013-05-16 23:14:00,54.5,4.7,17.72,West,274,0.0,0.0,13,0.00,,---,0.00,VWS V13.01,2013-05-17 03:14:00,
2013-05-16 23:19:00,54.5,4.7,17.72,WSW,258,0.0,0.0,13,0.00,,---,0.00,VWS V13.01,2013-05-17 03:19:00,
2013-05-16 23:24:00,54.5,4.7,17.72,NNW,332,0.0,0.0,13,0.00,,---,0.00,VWS V13.01,2013-05-17 03:24:00,
2013-05-16 23:29:00,54.5,4.7,17.72,NNE,17,0.0,0.0,13,0.00,,---,0.00,VWS V13.01,2013-05-17 03:29:00,
2013-05-16 23:34:00,54.5,4.7,17.72,SSE,154,0.0,0.0,13,0.00,,---,0.00,VWS V13.01,2013-05-17 03:34:00,
2013-05-16 23:39:00,54.3,4.5,17.72,SSE,154,0.0,0.0,13,0.00,,---,0.00,VWS V13.01,2013-05-17 03:39:00,
2013-05-16 23:44:00,54.1,4.4,17.72,WSW,238,0.0,0.0,13,0.00,,---,0.00,VWS V13.01,2013-05-17 03:44:00,
2013-05-16 23:49:00,53.8,4.1,17.72,WNW,293,0.0,0.0,13,0.00,,---,0.00,VWS V13.01,2013-05-17 03:49:00,
2013-05-16 23:54:00,53.4,3.8,17.72,North,1,3.1,3.1,13,0.00,,---,0.00,VWS V13.01,2013-05-17 03:54:00,
2013-05-16 23:59:00,53.1,3.5,17.72,North,1,0.0,0.0,13,0.00,,---,0.00,VWS V13.01,2013-05-17 03:59:00,